Samus Swan — 9HA2333 — position and weather

sailwx.info

Track history (hours):
 
Tides and Currents Weather Stations Pressure Air Temp Water Temp Dewpoint Dewpoint Depression Visibility Wind Speed Wind Dir Waves Ship Positions

Samus Swan

Last reported at 2015-Jul-07 12:32 UTC. Time now 2015-Jul-07 13:15 UTC.
Position N 37°57' E 023°35'.

Length 106 m; draft 6.3 m.

Type: Ship (hazmat cat B). MMSI: 248363000.

Date/timePositionNaut miles runAvg speedWind from/ knotsBaromVisibWave heightAir tempDewpointWater temp
2015-Jul-07 12:32N 37°57' E 023°35'0 0.0
2015-Jul-07 11:29N 37°57' E 023°35'0 0.0
2015-Jul-07 10:32N 37°57' E 023°35'0 0.0
2015-Jul-07 09:32N 37°57' E 023°35'0 0.0
2015-Jul-07 08:32N 37°57' E 023°35'0 0.0
2015-Jul-07 07:32N 37°57' E 023°35'0 0.0
2015-Jul-07 06:26N 37°57' E 023°35'2 2.3
2015-Jul-07 05:34N 37°55' E 023°35'1 0.9
2015-Jul-07 04:33N 37°55' E 023°35'2 2.0
2015-Jul-07 03:31N 37°54' E 023°33'0 0.0
2015-Jul-07 02:31N 37°54' E 023°33'0 0.0
2015-Jul-07 01:31N 37°53' E 023°33'0 0.0
2015-Jul-07 00:31N 37°53' E 023°33'0 0.0
2015-Jul-06 23:31N 37°54' E 023°33'0 0.0
2015-Jul-06 22:31N 37°53' E 023°33'0 0.0
2015-Jul-06 21:31N 37°54' E 023°33'0 0.0
2015-Jul-06 20:31N 37°54' E 023°33'0 0.0
2015-Jul-06 19:31N 37°54' E 023°33'0 0.0
2015-Jul-06 18:31N 37°54' E 023°33'1 1.4
2015-Jul-06 17:33N 37°53' E 023°34'1 0.8
2015-Jul-06 16:33N 37°52' E 023°35'1 0.7
2015-Jul-06 15:33N 37°53' E 023°35'5 4.7
2015-Jul-06 14:33N 37°50' E 023°40'1313.0
2015-Jul-06 13:33N 37°38' E 023°46'39911.4
2015-Jul-05 02:31N 36°24' E 015°35'1313.1
2015-Jul-05 01:33N 36°24' E 015°20'1313.0
2015-Jul-05 00:33N 36°24' E 015°04'1313.5
2015-Jul-04 23:33N 36°24' E 014°47'1313.3
2015-Jul-04 22:34N 36°26' E 014°31'1313.1
2015-Jul-04 21:33N 36°33' E 014°17'1313.3
2015-Jul-04 20:33N 36°40' E 014°02'1313.3
2015-Jul-04 19:33N 36°47' E 013°48'1413.7
2015-Jul-04 18:33N 36°54' E 013°34'1413.6
2015-Jul-04 17:33N 37°02' E 013°20'1413.4
2015-Jul-04 16:33N 37°09' E 013°06'1313.4
2015-Jul-04 15:33N 37°16' E 012°51'1313.2
2015-Jul-04 14:33N 37°23' E 012°37'1313.4
2015-Jul-04 13:33N 37°31' E 012°23'1414.0
2015-Jul-04 12:33N 37°38' E 012°08'1413.7
2015-Jul-04 11:33N 37°44' E 011°53'1313.3
2015-Jul-04 10:33N 37°49' E 011°37'1313.0
2015-Jul-04 09:33N 37°53' E 011°22'1313.4
2015-Jul-04 08:33N 37°58' E 011°06'1413.4
2015-Jul-04 07:33N 38°03' E 010°50'1413.7
2015-Jul-04 06:33N 38°08' E 010°34'1413.7
2015-Jul-04 05:33N 38°13' E 010°17'1413.8
2015-Jul-04 04:33N 38°18' E 010°01'1413.7
2015-Jul-04 03:33N 38°23' E 009°45'1413.8
2015-Jul-04 02:33N 38°28' E 009°28'1413.7
2015-Jul-04 01:33N 38°33' E 009°12'1313.3
2015-Jul-04 00:33N 38°38' E 008°56'8013.2
2015-Jul-03 18:28N 39°08' E 007°20'1313.1
2015-Jul-03 17:30N 39°12' E 007°05'5513.0
2015-Jul-03 13:17N 39°33' E 005°59'912.9
2015-Jul-03 12:33N 39°37' E 005°48'1312.8
2015-Jul-03 11:30N 39°42' E 005°32'6513.0
2015-Jul-03 06:27N 40°07' E 004°13'2913.6
2015-Jul-03 04:20N 40°19' E 003°38'1113.8
2015-Jul-03 03:33N 40°23' E 003°25'1313.4
2015-Jul-03 02:33N 40°28' E 003°09'1312.8
2015-Jul-03 01:33N 40°32' E 002°53'1312.5
2015-Jul-03 00:33N 40°37' E 002°38'1312.6
2015-Jul-02 23:33N 40°42' E 002°23'1312.7
2015-Jul-02 22:33N 40°47' E 002°07'1212.4
2015-Jul-02 21:33N 40°51' E 001°52'1212.2
2015-Jul-02 20:33N 40°56' E 001°37'20 0.9
2015-Jul-01 21:33N 41°05' E 001°13'4 3.3
2015-Jul-01 20:29N 41°06' E 001°17'0 0.0
2015-Jul-01 19:29N 41°06' E 001°17'0 0.0
2015-Jul-01 13:23N 41°06' E 001°17'0 0.0
2015-Jul-01 11:29N 41°06' E 001°17'0 0.0
2015-Jul-01 09:17N 41°06' E 001°17'0 0.0
2015-Jul-01 07:29N 41°06' E 001°17'0 0.0
2015-Jul-01 06:14N 41°06' E 001°17'0 0.0
2015-Jul-01 05:17N 41°06' E 001°17'0 0.0
2015-Jul-01 04:32N 41°06' E 001°17'0 0.0
2015-Jul-01 03:15N 41°06' E 001°17'4 6.3
2015-Jul-01 02:33N 41°02' E 001°19'1010.2
2015-Jul-01 01:33N 40°53' E 001°25'1010.5
2015-Jul-01 00:33N 40°45' E 001°34'9 9.0
2015-Jun-30 23:33N 40°36' E 001°35'9 9.3
2015-Jun-30 22:33N 40°27' E 001°31'10 9.6
2015-Jun-30 21:33N 40°18' E 001°27'1010.2
2015-Jun-30 20:33N 40°09' E 001°22'1110.7
2015-Jun-30 19:33N 39°59' E 001°17'1110.6
2015-Jun-30 18:33N 39°49' E 001°13'1010.2
2015-Jun-30 17:32N 39°39' E 001°06'1210.5
2015-Jun-30 16:25N 39°28' E 001°01'1110.4
2015-Jun-30 15:21N 39°18' E 000°56'810.1
2015-Jun-30 14:33N 39°10' E 000°53'6 5.7
2015-Jun-30 13:33N 39°05' E 000°51'10 9.5
2015-Jun-30 12:31N 38°56' E 000°45'10 8.9
2015-Jun-30 11:27N 38°46' E 000°46'1010.3
2015-Jun-30 10:27N 38°39' E 000°54'9 9.9
2015-Jun-30 09:33N 38°32' E 001°01'1010.0
2015-Jun-30 08:33N 38°24' E 001°09'9 8.8
2015-Jun-30 07:33N 38°19' E 001°19'1010.0
2015-Jun-30 06:33N 38°22' E 001°31'1010.1
2015-Jun-30 05:33N 38°24' E 001°43'1010.0
2015-Jun-30 04:33N 38°27' E 001°56'1010.3
2015-Jun-30 03:33N 38°29' E 002°08'1010.3
2015-Jun-30 02:33N 38°32' E 002°21'1010.1
2015-Jun-30 01:33N 38°34' E 002°34'1010.0
2015-Jun-30 00:33N 38°37' E 002°46'1010.2
2015-Jun-29 23:33N 38°39' E 002°59'1010.4
2015-Jun-29 22:33N 38°42' E 003°12'1010.2
2015-Jun-29 21:33N 38°44' E 003°25'1010.0
2015-Jun-29 20:33N 38°46' E 003°37'10 9.8
2015-Jun-29 19:33N 38°48' E 003°49'10 9.7
2015-Jun-29 18:33N 38°51' E 004°01'11 9.9
2015-Jun-29 17:27N 38°53' E 004°15'  
Track history (hours):
 
Tides and Currents Weather Stations Pressure Air Temp Water Temp Dewpoint Dewpoint Depression Visibility Wind Speed Wind Dir Waves Ship Positions

Samus Swan

Last reported at 2015-Jul-07 12:32 UTC. Time now 2015-Jul-07 13:15 UTC.
Position N 37°57' E 023°35'.

Length 106 m; draft 6.3 m.

Type: Ship (hazmat cat B). MMSI: 248363000.

Date/timePositionNaut miles runAvg speedWind from/ knotsBaromVisibWave heightAir tempDewpointWater temp
2015-Jul-07 12:32N 37°57' E 023°35'0 0.0
2015-Jul-07 11:29N 37°57' E 023°35'0 0.0
2015-Jul-07 10:32N 37°57' E 023°35'0 0.0
2015-Jul-07 09:32N 37°57' E 023°35'0 0.0
2015-Jul-07 08:32N 37°57' E 023°35'0 0.0
2015-Jul-07 07:32N 37°57' E 023°35'0 0.0
2015-Jul-07 06:26N 37°57' E 023°35'2 2.3
2015-Jul-07 05:34N 37°55' E 023°35'1 0.9
2015-Jul-07 04:33N 37°55' E 023°35'2 2.0
2015-Jul-07 03:31N 37°54' E 023°33'0 0.0
2015-Jul-07 02:31N 37°54' E 023°33'0 0.0
2015-Jul-07 01:31N 37°53' E 023°33'0 0.0
2015-Jul-07 00:31N 37°53' E 023°33'0 0.0
2015-Jul-06 23:31N 37°54' E 023°33'0 0.0
2015-Jul-06 22:31N 37°53' E 023°33'0 0.0
2015-Jul-06 21:31N 37°54' E 023°33'0 0.0
2015-Jul-06 20:31N 37°54' E 023°33'0 0.0
2015-Jul-06 19:31N 37°54' E 023°33'0 0.0
2015-Jul-06 18:31N 37°54' E 023°33'1 1.4
2015-Jul-06 17:33N 37°53' E 023°34'1 0.8
2015-Jul-06 16:33N 37°52' E 023°35'1 0.7
2015-Jul-06 15:33N 37°53' E 023°35'5 4.7
2015-Jul-06 14:33N 37°50' E 023°40'1313.0
2015-Jul-06 13:33N 37°38' E 023°46'39911.4
2015-Jul-05 02:31N 36°24' E 015°35'1313.1
2015-Jul-05 01:33N 36°24' E 015°20'1313.0
2015-Jul-05 00:33N 36°24' E 015°04'1313.5
2015-Jul-04 23:33N 36°24' E 014°47'1313.3
2015-Jul-04 22:34N 36°26' E 014°31'1313.1
2015-Jul-04 21:33N 36°33' E 014°17'1313.3
2015-Jul-04 20:33N 36°40' E 014°02'1313.3
2015-Jul-04 19:33N 36°47' E 013°48'1413.7
2015-Jul-04 18:33N 36°54' E 013°34'1413.6
2015-Jul-04 17:33N 37°02' E 013°20'1413.4
2015-Jul-04 16:33N 37°09' E 013°06'1313.4
2015-Jul-04 15:33N 37°16' E 012°51'1313.2
2015-Jul-04 14:33N 37°23' E 012°37'1313.4
2015-Jul-04 13:33N 37°31' E 012°23'1414.0
2015-Jul-04 12:33N 37°38' E 012°08'1413.7
2015-Jul-04 11:33N 37°44' E 011°53'1313.3
2015-Jul-04 10:33N 37°49' E 011°37'1313.0
2015-Jul-04 09:33N 37°53' E 011°22'1313.4
2015-Jul-04 08:33N 37°58' E 011°06'1413.4
2015-Jul-04 07:33N 38°03' E 010°50'1413.7
2015-Jul-04 06:33N 38°08' E 010°34'1413.7
2015-Jul-04 05:33N 38°13' E 010°17'1413.8
2015-Jul-04 04:33N 38°18' E 010°01'1413.7
2015-Jul-04 03:33N 38°23' E 009°45'1413.8
2015-Jul-04 02:33N 38°28' E 009°28'1413.7
2015-Jul-04 01:33N 38°33' E 009°12'1313.3
2015-Jul-04 00:33N 38°38' E 008°56'8013.2
2015-Jul-03 18:28N 39°08' E 007°20'1313.1
2015-Jul-03 17:30N 39°12' E 007°05'5513.0
2015-Jul-03 13:17N 39°33' E 005°59'912.9
2015-Jul-03 12:33N 39°37' E 005°48'1312.8
2015-Jul-03 11:30N 39°42' E 005°32'6513.0
2015-Jul-03 06:27N 40°07' E 004°13'2913.6
2015-Jul-03 04:20N 40°19' E 003°38'1113.8
2015-Jul-03 03:33N 40°23' E 003°25'1313.4
2015-Jul-03 02:33N 40°28' E 003°09'1312.8
2015-Jul-03 01:33N 40°32' E 002°53'1312.5
2015-Jul-03 00:33N 40°37' E 002°38'1312.6
2015-Jul-02 23:33N 40°42' E 002°23'1312.7
2015-Jul-02 22:33N 40°47' E 002°07'1212.4
2015-Jul-02 21:33N 40°51' E 001°52'1212.2
2015-Jul-02 20:33N 40°56' E 001°37'20 0.9
2015-Jul-01 21:33N 41°05' E 001°13'4 3.3
2015-Jul-01 20:29N 41°06' E 001°17'0 0.0
2015-Jul-01 19:29N 41°06' E 001°17'0 0.0
2015-Jul-01 13:23N 41°06' E 001°17'0 0.0
2015-Jul-01 11:29N 41°06' E 001°17'0 0.0
2015-Jul-01 09:17N 41°06' E 001°17'0 0.0
2015-Jul-01 07:29N 41°06' E 001°17'0 0.0
2015-Jul-01 06:14N 41°06' E 001°17'0 0.0
2015-Jul-01 05:17N 41°06' E 001°17'0 0.0
2015-Jul-01 04:32N 41°06' E 001°17'0 0.0
2015-Jul-01 03:15N 41°06' E 001°17'4 6.3
2015-Jul-01 02:33N 41°02' E 001°19'1010.2
2015-Jul-01 01:33N 40°53' E 001°25'1010.5
2015-Jul-01 00:33N 40°45' E 001°34'9 9.0
2015-Jun-30 23:33N 40°36' E 001°35'9 9.3
2015-Jun-30 22:33N 40°27' E 001°31'10 9.6
2015-Jun-30 21:33N 40°18' E 001°27'1010.2
2015-Jun-30 20:33N 40°09' E 001°22'1110.7
2015-Jun-30 19:33N 39°59' E 001°17'1110.6
2015-Jun-30 18:33N 39°49' E 001°13'1010.2
2015-Jun-30 17:32N 39°39' E 001°06'1210.5
2015-Jun-30 16:25N 39°28' E 001°01'1110.4
2015-Jun-30 15:21N 39°18' E 000°56'810.1
2015-Jun-30 14:33N 39°10' E 000°53'6 5.7
2015-Jun-30 13:33N 39°05' E 000°51'10 9.5
2015-Jun-30 12:31N 38°56' E 000°45'10 8.9
2015-Jun-30 11:27N 38°46' E 000°46'1010.3
2015-Jun-30 10:27N 38°39' E 000°54'9 9.9
2015-Jun-30 09:33N 38°32' E 001°01'1010.0
2015-Jun-30 08:33N 38°24' E 001°09'9 8.8
2015-Jun-30 07:33N 38°19' E 001°19'1010.0
2015-Jun-30 06:33N 38°22' E 001°31'1010.1
2015-Jun-30 05:33N 38°24' E 001°43'1010.0
2015-Jun-30 04:33N 38°27' E 001°56'1010.3
2015-Jun-30 03:33N 38°29' E 002°08'1010.3
2015-Jun-30 02:33N 38°32' E 002°21'1010.1
2015-Jun-30 01:33N 38°34' E 002°34'1010.0
2015-Jun-30 00:33N 38°37' E 002°46'1010.2
2015-Jun-29 23:33N 38°39' E 002°59'1010.4
2015-Jun-29 22:33N 38°42' E 003°12'1010.2
2015-Jun-29 21:33N 38°44' E 003°25'1010.0
2015-Jun-29 20:33N 38°46' E 003°37'10 9.8
2015-Jun-29 19:33N 38°48' E 003°49'10 9.7
2015-Jun-29 18:33N 38°51' E 004°01'11 9.9
2015-Jun-29 17:27N 38°53' E 004°15'  

Dump ship's entire track history